Huidige situatie

Voornamelijk bewolkt
Barometer
1012.92 (hPa)
Zicht

8.0 (km)
   Temperatuur
12  °C
Temperatuur
10  °C
Dauwpunt
88  %
Vochtigheid
   Windsnelheid
11  km/h
   Windrichting
10°
  Pal Noord
   Vliegveld Data
EHGG
      Locatie Eelde 20  km van:
         Weerstation-Sauwerd
Metar :EHGG 210125Z AUTO 01006KT 340V040 8000 BKN032 OVC037 12/10 Q1013
maandag 21 oktober 03:25
   Raw Metar Info
Raw METAR is het meest gangbare formaat ter wereld voor de overdracht van waarnemingsweergegevens. Het is zeer gestandaardiseerd door de Internationale Burgerluchtvaartorganisatie (ICAO), waardoor het overal in de wereld kan worden begrepen.
   API Info
Data Provided by
https://www.checkwx.com/weather/EHGG
   © Info
CSS/SVG/PHP scripts were developed by weather34.com for use in the weather34 template © 2015-2019

Guide Info provided by Metar-Wikipedia